createdAt,value
2016-12-29T00:00:17.946Z,6.72
2016-12-29T00:00:44.059Z,6.82
2016-12-29T00:01:10.166Z,6.82
2016-12-29T00:01:36.288Z,6.89
2016-12-29T00:02:02.411Z,6.88
2016-12-29T00:02:28.507Z,6.87
2016-12-29T00:02:54.633Z,6.88
2016-12-29T00:03:20.744Z,6.81
2016-12-29T00:03:46.845Z,6.92
2016-12-29T00:04:12.962Z,6.81
2016-12-29T00:04:39.087Z,6.78
2016-12-29T00:05:05.189Z,6.88
2016-12-29T00:05:31.307Z,6.89
2016-12-29T00:05:57.425Z,6.85
2016-12-29T00:06:23.530Z,6.87
2016-12-29T00:06:49.633Z,6.95
2016-12-29T00:07:15.763Z,7
2016-12-29T00:07:41.875Z,6.89
2016-12-29T00:08:07.980Z,6.78
2016-12-29T00:08:34.102Z,6.92
2016-12-29T00:09:00.213Z,6.81
2016-12-29T00:09:26.322Z,6.81
2016-12-29T00:09:52.442Z,6.75
2016-12-29T00:10:18.561Z,6.78
2016-12-29T00:10:44.664Z,6.81
2016-12-29T00:11:10.777Z,6.81
2016-12-29T00:11:36.897Z,6.85
2016-12-29T00:12:02.993Z,6.77
2016-12-29T00:12:29.114Z,6.88
2016-12-29T00:12:55.216Z,6.75
2016-12-29T00:13:21.332Z,6.78
2016-12-29T00:13:47.453Z,6.87
2016-12-29T00:14:13.555Z,6.77
2016-12-29T00:14:39.674Z,6.59
2016-12-29T00:15:05.791Z,6.6
2016-12-29T00:15:31.897Z,6.69
2016-12-29T00:15:58.009Z,6.74
2016-12-29T00:16:24.131Z,6.74
2016-12-29T00:16:50.237Z,6.75
2016-12-29T00:17:16.346Z,6.64
2016-12-29T00:17:42.465Z,6.6
2016-12-29T00:18:08.579Z,6.62
2016-12-29T00:18:34.704Z,6.57
2016-12-29T00:19:00.807Z,6.6
2016-12-29T00:19:26.920Z,6.56
2016-12-29T00:19:53.035Z,6.66
2016-12-29T00:20:19.149Z,6.77
2016-12-29T00:20:45.253Z,6.64
2016-12-29T00:21:11.374Z,6.7
2016-12-29T00:21:37.483Z,6.57
2016-12-29T00:22:03.591Z,6.67
2016-12-29T00:22:29.710Z,6.72
2016-12-29T00:22:55.824Z,6.7
2016-12-29T00:23:21.942Z,6.74
2016-12-29T00:23:48.048Z,6.74
2016-12-29T00:24:14.149Z,6.81
2016-12-29T00:24:40.273Z,6.78
2016-12-29T00:25:06.389Z,6.77
2016-12-29T00:25:32.493Z,6.81
2016-12-29T00:25:58.612Z,6.81
2016-12-29T00:26:24.728Z,6.59
2016-12-29T00:26:50.825Z,6.72
2016-12-29T00:27:16.945Z,6.63
2016-12-29T00:27:43.068Z,6.64
2016-12-29T00:28:09.171Z,6.6
2016-12-29T00:28:35.286Z,6.69
2016-12-29T00:29:01.398Z,6.74
2016-12-29T00:29:27.524Z,6.69
2016-12-29T00:29:53.640Z,6.69
2016-12-29T00:30:19.745Z,6.6
2016-12-29T00:30:45.865Z,6.63
2016-12-29T00:31:11.982Z,6.75
2016-12-29T00:31:38.092Z,6.64
2016-12-29T00:32:04.209Z,6.75
2016-12-29T00:32:30.324Z,6.67
2016-12-29T00:32:56.430Z,6.7
2016-12-29T00:33:22.538Z,6.72
2016-12-29T00:33:48.660Z,6.69
2016-12-29T00:34:14.767Z,6.72
2016-12-29T00:34:40.884Z,6.6
2016-12-29T00:35:06.987Z,6.67
2016-12-29T00:35:33.107Z,6.57
2016-12-29T00:35:59.227Z,6.74
2016-12-29T00:36:25.333Z,6.64
2016-12-29T00:36:51.442Z,6.69
2016-12-29T00:37:17.599Z,6.63
2016-12-29T00:37:43.706Z,6.59
2016-12-29T00:38:09.815Z,6.63
2016-12-29T00:38:35.934Z,6.63
2016-12-29T00:39:02.052Z,6.62
2016-12-29T00:39:28.152Z,6.64
2016-12-29T00:39:54.275Z,6.7
2016-12-29T00:40:20.388Z,6.6
2016-12-29T00:40:46.506Z,6.59
2016-12-29T00:41:12.616Z,6.57
2016-12-29T00:41:38.724Z,6.51
2016-12-29T00:42:04.848Z,6.48
2016-12-29T00:42:30.958Z,6.51
2016-12-29T00:42:57.069Z,6.52
2016-12-29T00:43:23.187Z,6.51
2016-12-29T00:43:49.298Z,6.59
2016-12-29T00:44:15.404Z,6.56
2016-12-29T00:44:41.526Z,6.52
2016-12-29T00:45:07.649Z,6.51
2016-12-29T00:45:33.752Z,6.52
2016-12-29T00:45:59.864Z,6.59
2016-12-29T00:46:25.968Z,6.44
2016-12-29T00:46:52.093Z,6.44
2016-12-29T00:47:18.208Z,6.39
2016-12-29T00:47:44.316Z,6.44
2016-12-29T00:48:10.425Z,6.51
2016-12-29T00:48:36.544Z,6.49
2016-12-29T00:49:02.651Z,6.54
2016-12-29T00:49:28.764Z,6.52
2016-12-29T00:49:54.887Z,6.56
2016-12-29T00:50:20.992Z,6.45
2016-12-29T00:50:47.102Z,6.49
2016-12-29T00:51:13.225Z,6.38
2016-12-29T00:51:39.332Z,6.35
2016-12-29T00:52:05.443Z,6.33
2016-12-29T00:52:31.569Z,6.38
2016-12-29T00:52:57.677Z,6.35
2016-12-29T00:53:23.778Z,6.27
2016-12-29T00:53:49.902Z,6.27
2016-12-29T00:54:16.012Z,6.35
2016-12-29T00:54:42.123Z,6.17
2016-12-29T00:55:08.240Z,6.19
2016-12-29T00:55:34.361Z,6.14
2016-12-29T00:56:00.460Z,6.22
2016-12-29T00:56:26.575Z,6.19
2016-12-29T00:56:52.682Z,6.22
2016-12-29T00:57:18.800Z,6.22
2016-12-29T00:57:44.915Z,6.26
2016-12-29T00:58:11.025Z,6.3
2016-12-29T00:58:37.296Z,6.33
2016-12-29T00:59:03.422Z,6.28
2016-12-29T00:59:29.522Z,6.36
2016-12-29T00:59:55.642Z,6.36
2016-12-29T01:00:21.757Z,6.35
2016-12-29T01:00:47.863Z,6.28
2016-12-29T01:01:13.969Z,6.31
2016-12-29T01:01:40.097Z,6.26
2016-12-29T01:02:06.207Z,6.22
2016-12-29T01:02:32.325Z,6.26
2016-12-29T01:02:58.424Z,6.26
2016-12-29T01:03:24.537Z,6.17
2016-12-29T01:03:50.657Z,6.3
2016-12-29T01:04:16.758Z,6.19
2016-12-29T01:04:42.868Z,6.17
2016-12-29T01:05:08.988Z,6.14
2016-12-29T01:05:35.102Z,6.2
2016-12-29T01:06:01.208Z,6.26
2016-12-29T01:06:27.331Z,6.24
2016-12-29T01:06:53.442Z,6.2
2016-12-29T01:07:19.541Z,6.27
2016-12-29T01:07:45.671Z,6.3
2016-12-29T01:08:11.784Z,6.22
2016-12-29T01:08:37.906Z,6.28
2016-12-29T01:09:04.013Z,6.22
2016-12-29T01:09:30.121Z,6.24
2016-12-29T01:09:56.246Z,6.26
2016-12-29T01:10:22.353Z,6.22
2016-12-29T01:10:48.460Z,6.07
2016-12-29T01:11:14.579Z,6.11
2016-12-29T01:11:40.691Z,6.05
2016-12-29T01:12:06.794Z,6.11
2016-12-29T01:12:32.917Z,6.11
2016-12-29T01:12:59.038Z,6.04
2016-12-29T01:13:25.135Z,6.11
2016-12-29T01:13:51.247Z,6.09
2016-12-29T01:14:17.371Z,6.09
2016-12-29T01:14:43.478Z,6.04
2016-12-29T01:15:09.587Z,6.07
2016-12-29T01:15:35.715Z,6.02
2016-12-29T01:16:01.824Z,6.02
2016-12-29T01:16:27.929Z,6.04
2016-12-29T01:16:54.050Z,5.97
2016-12-29T01:17:20.163Z,5.97
2016-12-29T01:17:46.266Z,5.97
2016-12-29T01:18:12.391Z,6.04
2016-12-29T01:18:38.510Z,5.9
2016-12-29T01:19:04.621Z,5.97
2016-12-29T01:19:30.732Z,5.93
2016-12-29T01:19:56.837Z,5.94
2016-12-29T01:20:22.958Z,5.87
2016-12-29T01:20:49.064Z,5.89
2016-12-29T01:21:15.169Z,5.9
2016-12-29T01:21:41.296Z,5.93
2016-12-29T01:22:07.409Z,6.05
2016-12-29T01:22:33.547Z,5.99
2016-12-29T01:22:59.660Z,6.04
2016-12-29T01:23:25.785Z,6.05
2016-12-29T01:23:51.882Z,6.09
2016-12-29T01:24:17.998Z,6.08
2016-12-29T01:24:44.101Z,6.02
2016-12-29T01:25:10.218Z,5.93
2016-12-29T01:25:36.328Z,5.87
2016-12-29T01:26:02.436Z,5.89
2016-12-29T01:26:28.556Z,5.86
2016-12-29T01:26:54.678Z,5.86
2016-12-29T01:27:20.776Z,5.86
2016-12-29T01:27:46.898Z,5.91
2016-12-29T01:28:13.011Z,5.93
2016-12-29T01:28:39.117Z,5.97
2016-12-29T01:29:05.222Z,5.91
2016-12-29T01:29:31.349Z,5.76
2016-12-29T01:29:57.459Z,5.69
2016-12-29T01:30:23.578Z,5.68
2016-12-29T01:30:49.685Z,5.75
2016-12-29T01:31:15.802Z,5.79
2016-12-29T01:31:41.922Z,5.75
2016-12-29T01:32:08.025Z,5.8
2016-12-29T01:32:34.138Z,5.83
2016-12-29T01:33:00.263Z,5.86
2016-12-29T01:33:26.371Z,5.75
2016-12-29T01:33:52.479Z,5.84
2016-12-29T01:34:18.603Z,5.79
2016-12-29T01:34:44.719Z,5.73
2016-12-29T01:35:10.818Z,5.84
2016-12-29T01:35:36.941Z,5.86
2016-12-29T01:36:03.059Z,5.83
2016-12-29T01:36:29.161Z,5.86
2016-12-29T01:36:55.284Z,5.87
2016-12-29T01:37:21.408Z,5.87
2016-12-29T01:37:47.510Z,5.91
2016-12-29T01:38:13.626Z,5.94
2016-12-29T01:38:39.744Z,5.93
2016-12-29T01:39:05.852Z,5.98
2016-12-29T01:39:31.968Z,5.91
2016-12-29T01:39:58.090Z,5.89
2016-12-29T01:40:24.198Z,5.87
2016-12-29T01:40:50.296Z,5.94
2016-12-29T01:41:16.416Z,5.84
2016-12-29T01:41:42.523Z,5.89
2016-12-29T01:42:08.640Z,5.84
2016-12-29T01:42:34.752Z,5.75
2016-12-29T01:43:00.858Z,5.75
2016-12-29T01:43:27.007Z,5.69
2016-12-29T01:43:53.110Z,5.8
2016-12-29T01:44:19.222Z,5.76
2016-12-29T01:44:45.340Z,5.79
2016-12-29T01:45:11.452Z,5.69
2016-12-29T01:45:37.552Z,5.69
2016-12-29T01:46:03.678Z,5.73
2016-12-29T01:46:29.793Z,5.73
2016-12-29T01:46:55.907Z,5.66
2016-12-29T01:47:22.018Z,5.68
2016-12-29T01:47:48.126Z,5.8
2016-12-29T01:48:14.254Z,5.84
2016-12-29T01:48:40.371Z,5.73
2016-12-29T01:49:06.476Z,5.73
2016-12-29T01:49:32.596Z,5.75
2016-12-29T01:49:58.706Z,5.73
2016-12-29T01:50:24.814Z,5.79
2016-12-29T01:50:50.933Z,5.75
2016-12-29T01:51:17.057Z,5.75
2016-12-29T01:51:43.158Z,5.71
2016-12-29T01:52:09.268Z,5.71
2016-12-29T01:52:35.377Z,5.66
2016-12-29T01:53:01.500Z,5.75
2016-12-29T01:53:27.619Z,5.69
2016-12-29T01:53:53.727Z,5.68
2016-12-29T01:54:19.841Z,5.8
2016-12-29T01:54:45.960Z,5.73
2016-12-29T01:55:12.061Z,5.68
2016-12-29T01:55:38.177Z,5.69
2016-12-29T01:56:04.292Z,5.68
2016-12-29T01:56:30.398Z,5.69
2016-12-29T01:56:56.508Z,5.68
2016-12-29T01:57:22.632Z,5.69
2016-12-29T01:57:48.742Z,5.68
2016-12-29T01:58:14.865Z,5.66
2016-12-29T01:58:40.962Z,5.68
2016-12-29T01:59:07.127Z,5.66
2016-12-29T01:59:33.245Z,5.75
2016-12-29T01:59:59.350Z,5.72
2016-12-29T02:00:25.463Z,5.76
2016-12-29T02:00:51.587Z,5.69
2016-12-29T02:01:17.697Z,5.71
2016-12-29T02:01:43.795Z,5.68
2016-12-29T02:02:09.918Z,5.8
2016-12-29T02:02:36.028Z,5.71
2016-12-29T02:03:02.131Z,5.64
2016-12-29T02:03:28.253Z,5.66
2016-12-29T02:03:54.360Z,5.65
2016-12-29T02:04:20.484Z,5.62
2016-12-29T02:04:46.584Z,5.57
2016-12-29T02:05:12.697Z,5.51
2016-12-29T02:05:38.816Z,5.47
2016-12-29T02:06:04.928Z,5.46
2016-12-29T02:06:31.028Z,5.43
2016-12-29T02:06:57.152Z,5.48
2016-12-29T02:07:23.267Z,5.46
2016-12-29T02:07:49.375Z,5.47
2016-12-29T02:08:15.489Z,5.47
2016-12-29T02:08:41.608Z,5.57
2016-12-29T02:09:07.713Z,5.57
2016-12-29T02:09:33.830Z,5.54
2016-12-29T02:09:59.958Z,5.53
2016-12-29T02:10:26.080Z,5.47
2016-12-29T02:10:52.189Z,5.47
2016-12-29T02:11:18.298Z,5.38
2016-12-29T02:11:44.416Z,5.28
2016-12-29T02:12:10.540Z,5.3
2016-12-29T02:12:36.641Z,5.23
2016-12-29T02:13:02.752Z,5.28
2016-12-29T02:13:28.876Z,5.32
2016-12-29T02:13:54.982Z,5.21
2016-12-29T02:14:21.099Z,5.23
2016-12-29T02:14:47.209Z,5.14
2016-12-29T02:15:13.325Z,5.23
2016-12-29T02:15:39.451Z,5.28
2016-12-29T02:16:05.557Z,5.28
2016-12-29T02:16:31.665Z,5.28
2016-12-29T02:16:57.780Z,5.25
2016-12-29T02:17:23.887Z,5.33
2016-12-29T02:17:49.992Z,5.25
2016-12-29T02:18:16.112Z,5.29
2016-12-29T02:18:42.222Z,5.35
2016-12-29T02:19:08.325Z,5.33
2016-12-29T02:19:34.447Z,5.32
2016-12-29T02:20:00.564Z,5.36
2016-12-29T02:20:26.661Z,5.32
2016-12-29T02:20:52.785Z,5.41
2016-12-29T02:21:18.902Z,5.39
2016-12-29T02:21:45.007Z,5.36
2016-12-29T02:22:11.125Z,5.35
2016-12-29T02:22:37.242Z,5.35
2016-12-29T02:23:03.342Z,5.33
2016-12-29T02:23:29.456Z,5.35
2016-12-29T02:23:55.569Z,5.25
2016-12-29T02:24:21.675Z,5.35
2016-12-29T02:24:47.789Z,5.41
2016-12-29T02:25:13.913Z,5.38
2016-12-29T02:25:40.021Z,5.36
2016-12-29T02:26:06.147Z,5.43
2016-12-29T02:26:32.243Z,5.35
2016-12-29T02:26:58.361Z,5.43
2016-12-29T02:27:24.478Z,5.39
2016-12-29T02:27:50.587Z,5.39
2016-12-29T02:28:16.699Z,5.38
2016-12-29T02:28:42.817Z,5.33
2016-12-29T02:29:08.918Z,5.33
2016-12-29T02:29:35.028Z,5.35
2016-12-29T02:30:01.153Z,5.33
2016-12-29T02:30:27.261Z,5.35
2016-12-29T02:30:53.364Z,5.32
2016-12-29T02:31:19.479Z,5.41
2016-12-29T02:31:45.583Z,5.47
2016-12-29T02:32:11.710Z,5.48
2016-12-29T02:32:37.818Z,5.44
2016-12-29T02:33:03.924Z,5.5
2016-12-29T02:33:30.049Z,5.48
2016-12-29T02:33:56.154Z,5.5
2016-12-29T02:34:22.259Z,5.5
2016-12-29T02:34:48.382Z,5.41
2016-12-29T02:35:14.498Z,5.51
2016-12-29T02:35:40.605Z,5.48
2016-12-29T02:36:06.722Z,5.35
2016-12-29T02:36:32.846Z,5.44
2016-12-29T02:36:58.957Z,5.48
2016-12-29T02:37:25.070Z,5.44
2016-12-29T02:37:51.170Z,5.5
2016-12-29T02:38:17.292Z,5.54
2016-12-29T02:38:43.404Z,5.46
2016-12-29T02:39:09.510Z,5.51
2016-12-29T02:39:35.629Z,5.56
2016-12-29T02:40:01.751Z,5.33
2016-12-29T02:40:27.851Z,5.39
2016-12-29T02:40:53.972Z,5.36
2016-12-29T02:41:20.089Z,5.33
2016-12-29T02:41:46.196Z,5.35
2016-12-29T02:42:12.307Z,5.28
2016-12-29T02:42:38.414Z,5.26
2016-12-29T02:43:04.529Z,5.28
2016-12-29T02:43:30.649Z,5.12
2016-12-29T02:43:56.753Z,5.12
2016-12-29T02:44:22.869Z,5.07
2016-12-29T02:44:48.992Z,5.07
2016-12-29T02:45:15.101Z,5.14
2016-12-29T02:45:41.210Z,5.12
2016-12-29T02:46:07.334Z,5.2
2016-12-29T02:46:33.436Z,5.23
2016-12-29T02:46:59.543Z,5.21
2016-12-29T02:47:25.662Z,5.21
2016-12-29T02:47:51.777Z,5.2
2016-12-29T02:48:17.890Z,5.32
2016-12-29T02:48:43.996Z,5.29
2016-12-29T02:49:10.106Z,5.36
2016-12-29T02:49:36.229Z,5.3
2016-12-29T02:50:02.338Z,5.29
2016-12-29T02:50:28.446Z,5.29
2016-12-29T02:50:54.568Z,5.23
2016-12-29T02:51:20.675Z,5.26
2016-12-29T02:51:46.780Z,5.33
2016-12-29T02:52:12.901Z,5.35
2016-12-29T02:52:39.013Z,5.36
2016-12-29T02:53:05.122Z,5.33
2016-12-29T02:53:31.238Z,5.36
2016-12-29T02:53:57.339Z,5.35
2016-12-29T02:54:23.466Z,5.39
2016-12-29T02:54:49.574Z,5.35
2016-12-29T02:55:15.675Z,5.33
2016-12-29T02:55:41.796Z,5.39
2016-12-29T02:56:07.913Z,5.38
2016-12-29T02:56:34.019Z,5.43
2016-12-29T02:57:00.132Z,5.39
2016-12-29T02:57:26.257Z,5.39
2016-12-29T02:57:52.356Z,5.44
2016-12-29T02:58:18.471Z,5.46
2016-12-29T02:58:44.587Z,5.5
2016-12-29T02:59:10.692Z,5.5
2016-12-29T02:59:36.814Z,5.46
2016-12-29T03:00:02.919Z,5.47
2016-12-29T03:00:29.042Z,5.54
2016-12-29T03:00:55.159Z,5.54
2016-12-29T03:01:21.273Z,5.54
2016-12-29T03:01:47.388Z,5.57
2016-12-29T03:02:13.507Z,5.57
2016-12-29T03:02:39.607Z,5.57
2016-12-29T03:03:05.714Z,5.56
2016-12-29T03:03:31.837Z,5.54
2016-12-29T03:03:57.946Z,5.54
2016-12-29T03:04:24.056Z,5.39
2016-12-29T03:04:50.174Z,5.53
2016-12-29T03:05:16.280Z,5.43
2016-12-29T03:05:42.381Z,5.43
2016-12-29T03:06:08.505Z,5.43
2016-12-29T03:06:34.615Z,5.33
2016-12-29T03:07:00.715Z,5.35
2016-12-29T03:07:26.834Z,5.3
2016-12-29T03:07:52.962Z,5.32
2016-12-29T03:08:19.058Z,5.29
2016-12-29T03:08:45.175Z,5.38
2016-12-29T03:09:11.292Z,5.38
2016-12-29T03:09:37.398Z,5.32
2016-12-29T03:10:03.512Z,5.36
2016-12-29T03:10:29.621Z,5.32
2016-12-29T03:10:55.740Z,5.32
2016-12-29T03:11:21.864Z,5.3
2016-12-29T03:11:47.968Z,5.3
2016-12-29T03:12:14.083Z,5.26
2016-12-29T03:12:40.204Z,5.23
2016-12-29T03:13:06.305Z,5.23
2016-12-29T03:13:32.413Z,5.28
2016-12-29T03:13:58.537Z,5.2
2016-12-29T03:14:24.643Z,5.18
2016-12-29T03:14:50.747Z,5.14
2016-12-29T03:15:16.866Z,5.17
2016-12-29T03:15:42.980Z,5.11
2016-12-29T03:16:09.099Z,5.2
2016-12-29T03:16:35.205Z,5.11
2016-12-29T03:17:01.314Z,5.12
2016-12-29T03:17:27.432Z,5.12
2016-12-29T03:17:53.540Z,5.05
2016-12-29T03:18:19.639Z,5.07
2016-12-29T03:18:45.766Z,5.15
2016-12-29T03:19:11.879Z,5.15
2016-12-29T03:19:37.976Z,5.12
2016-12-29T03:20:04.100Z,5.07
2016-12-29T03:20:30.212Z,5.11
2016-12-29T03:20:56.318Z,5.02
2016-12-29T03:21:22.436Z,5.05
2016-12-29T03:21:48.536Z,5.08
2016-12-29T03:22:14.662Z,5.15
2016-12-29T03:22:40.774Z,5.18
2016-12-29T03:23:06.874Z,5.05
2016-12-29T03:23:32.998Z,5.15
2016-12-29T03:23:59.111Z,5.14
2016-12-29T03:24:25.216Z,5.2
2016-12-29T03:24:51.332Z,5.15
2016-12-29T03:25:17.461Z,5.05
2016-12-29T03:25:43.555Z,5.14
2016-12-29T03:26:09.674Z,5.17
2016-12-29T03:26:35.789Z,5.12
2016-12-29T03:27:01.894Z,5.17
2016-12-29T03:27:28.011Z,5.2
2016-12-29T03:27:54.120Z,4.99
2016-12-29T03:28:20.230Z,5.12
2016-12-29T03:28:46.353Z,5.02
2016-12-29T03:29:12.448Z,5.07
2016-12-29T03:29:38.563Z,5.1
2016-12-29T03:30:04.684Z,5.07
2016-12-29T03:30:30.794Z,5.02
2016-12-29T03:30:56.902Z,5.02
2016-12-29T03:31:23.025Z,4.99
2016-12-29T03:31:49.137Z,4.99
2016-12-29T03:32:15.242Z,4.97
2016-12-29T03:32:41.361Z,5
2016-12-29T03:33:07.473Z,5.04
2016-12-29T03:33:33.593Z,4.93
2016-12-29T03:33:59.699Z,4.87
2016-12-29T03:34:25.810Z,4.89
2016-12-29T03:34:51.936Z,4.92
2016-12-29T03:35:18.041Z,4.93
2016-12-29T03:35:44.145Z,4.96
2016-12-29T03:36:10.263Z,5.02
2016-12-29T03:36:36.372Z,4.94
2016-12-29T03:37:02.471Z,4.96
2016-12-29T03:37:28.590Z,4.84
2016-12-29T03:37:54.706Z,4.86
2016-12-29T03:38:20.819Z,4.77
2016-12-29T03:38:46.925Z,4.75
2016-12-29T03:39:13.036Z,4.78
2016-12-29T03:39:39.157Z,4.86
2016-12-29T03:40:05.268Z,4.8
2016-12-29T03:40:31.371Z,4.9
2016-12-29T03:40:57.490Z,4.93
2016-12-29T03:41:23.603Z,4.89
2016-12-29T03:41:49.702Z,4.87
2016-12-29T03:42:15.821Z,4.94
2016-12-29T03:42:41.940Z,4.93
2016-12-29T03:43:08.044Z,4.93
2016-12-29T03:43:34.157Z,4.9
2016-12-29T03:44:00.268Z,4.86
2016-12-29T03:44:26.389Z,4.8
2016-12-29T03:44:52.504Z,4.78
2016-12-29T03:45:18.612Z,4.73
2016-12-29T03:45:44.727Z,4.71
2016-12-29T03:46:10.846Z,4.75
2016-12-29T03:46:36.946Z,4.78
2016-12-29T03:47:03.064Z,4.78
2016-12-29T03:47:29.189Z,4.84
2016-12-29T03:47:55.290Z,4.82
2016-12-29T03:48:21.399Z,4.86
2016-12-29T03:48:47.514Z,4.84
2016-12-29T03:49:13.629Z,4.96
2016-12-29T03:49:39.729Z,4.82
2016-12-29T03:50:05.855Z,4.77
2016-12-29T03:50:31.968Z,4.77
2016-12-29T03:50:58.069Z,4.78
2016-12-29T03:51:24.191Z,4.82
2016-12-29T03:51:50.307Z,4.84
2016-12-29T03:52:16.416Z,4.75
2016-12-29T03:52:42.533Z,4.82
2016-12-29T03:53:08.659Z,4.86
2016-12-29T03:53:34.756Z,4.74
2016-12-29T03:54:00.875Z,4.77
2016-12-29T03:54:26.991Z,4.78
2016-12-29T03:54:53.095Z,4.78
2016-12-29T03:55:19.213Z,4.86
2016-12-29T03:55:45.315Z,4.84
2016-12-29T03:56:11.435Z,4.75
2016-12-29T03:56:37.554Z,4.78
2016-12-29T03:57:03.656Z,4.78
2016-12-29T03:57:29.768Z,4.77
2016-12-29T03:57:55.889Z,4.82
2016-12-29T03:58:21.993Z,4.73
2016-12-29T03:58:48.101Z,4.68
2016-12-29T03:59:14.224Z,4.68
2016-12-29T03:59:40.359Z,4.77
2016-12-29T04:00:06.466Z,4.77
2016-12-29T04:00:32.578Z,4.75
2016-12-29T04:00:58.697Z,4.77
2016-12-29T04:01:24.819Z,4.77
2016-12-29T04:01:50.922Z,4.74
2016-12-29T04:02:17.034Z,4.74
2016-12-29T04:02:43.158Z,4.73
2016-12-29T04:03:09.262Z,4.74
2016-12-29T04:03:35.365Z,4.78
2016-12-29T04:04:01.496Z,4.84
2016-12-29T04:04:27.612Z,4.78
2016-12-29T04:04:53.708Z,4.8
2016-12-29T04:05:19.828Z,4.78
2016-12-29T04:05:45.939Z,4.86
2016-12-29T04:06:12.058Z,4.93
2016-12-29T04:06:38.159Z,4.97
2016-12-29T04:07:04.260Z,4.93
2016-12-29T04:07:30.384Z,4.89
2016-12-29T04:07:56.494Z,4.93
2016-12-29T04:08:22.598Z,4.9
2016-12-29T04:08:48.720Z,4.9
2016-12-29T04:09:14.827Z,4.86
2016-12-29T04:09:40.926Z,4.87
2016-12-29T04:10:07.048Z,4.77
2016-12-29T04:10:33.192Z,4.77
2016-12-29T04:10:59.298Z,4.86
2016-12-29T04:11:25.409Z,4.77
2016-12-29T04:11:51.514Z,4.75
2016-12-29T04:12:17.635Z,4.8
2016-12-29T04:12:43.750Z,4.77
2016-12-29T04:13:09.855Z,4.84
2016-12-29T04:13:35.971Z,4.84
2016-12-29T04:14:02.085Z,4.82
2016-12-29T04:14:28.190Z,4.78
2016-12-29T04:14:54.306Z,4.8
2016-12-29T04:15:20.423Z,4.82
2016-12-29T04:15:46.530Z,4.78
2016-12-29T04:16:12.644Z,4.82
2016-12-29T04:16:38.759Z,4.78
2016-12-29T04:17:04.868Z,4.82
2016-12-29T04:17:30.990Z,4.89
2016-12-29T04:17:57.087Z,4.78
2016-12-29T04:18:23.202Z,4.75
2016-12-29T04:18:49.318Z,4.84
2016-12-29T04:19:15.425Z,4.77
2016-12-29T04:19:41.534Z,4.75
2016-12-29T04:20:07.653Z,4.73
2016-12-29T04:20:33.760Z,4.77
2016-12-29T04:20:59.862Z,4.77
2016-12-29T04:21:25.985Z,4.77
2016-12-29T04:21:52.093Z,4.77
2016-12-29T04:22:18.199Z,4.74
2016-12-29T04:22:44.316Z,4.77
2016-12-29T04:23:10.414Z,4.77
2016-12-29T04:23:36.539Z,4.75
2016-12-29T04:24:02.648Z,4.84
2016-12-29T04:24:28.754Z,4.82
2016-12-29T04:24:54.875Z,4.77
2016-12-29T04:25:20.978Z,4.82
2016-12-29T04:25:47.084Z,4.78
2016-12-29T04:26:13.201Z,4.77
2016-12-29T04:26:39.314Z,4.8
2016-12-29T04:27:05.412Z,4.63
2016-12-29T04:27:31.528Z,4.74
2016-12-29T04:27:57.644Z,4.66
2016-12-29T04:28:23.754Z,4.67
2016-12-29T04:28:49.867Z,4.68
2016-12-29T04:29:15.990Z,4.63
2016-12-29T04:29:42.113Z,4.56
2016-12-29T04:30:08.224Z,4.59
2016-12-29T04:30:34.330Z,4.59
2016-12-29T04:31:00.448Z,4.53
2016-12-29T04:31:26.567Z,4.58
2016-12-29T04:31:52.668Z,4.52
2016-12-29T04:32:18.787Z,4.67
2016-12-29T04:32:44.905Z,4.67
2016-12-29T04:33:11.011Z,4.6
2016-12-29T04:33:37.119Z,4.55
2016-12-29T04:34:03.244Z,4.58
2016-12-29T04:34:29.352Z,4.58
2016-12-29T04:34:55.450Z,4.56
2016-12-29T04:35:21.576Z,4.56
2016-12-29T04:35:47.686Z,4.58
2016-12-29T04:36:13.791Z,4.63
2016-12-29T04:36:39.911Z,4.58
2016-12-29T04:37:06.021Z,4.59
2016-12-29T04:37:32.133Z,4.55
2016-12-29T04:37:58.249Z,4.59
2016-12-29T04:38:24.366Z,4.59
2016-12-29T04:38:50.466Z,4.56
2016-12-29T04:39:16.581Z,4.53
2016-12-29T04:39:42.681Z,4.5
2016-12-29T04:40:08.808Z,4.5
2016-12-29T04:40:34.926Z,4.44
2016-12-29T04:41:01.030Z,4.5
2016-12-29T04:41:27.140Z,4.48
2016-12-29T04:41:53.259Z,4.45
2016-12-29T04:42:19.359Z,4.48
2016-12-29T04:42:45.479Z,4.49
2016-12-29T04:43:11.599Z,4.45
2016-12-29T04:43:37.700Z,4.44
2016-12-29T04:44:03.810Z,4.45
2016-12-29T04:44:29.929Z,4.45
2016-12-29T04:44:56.034Z,4.52
2016-12-29T04:45:22.153Z,4.44
2016-12-29T04:45:48.250Z,4.42
2016-12-29T04:46:14.358Z,4.44
2016-12-29T04:46:40.479Z,4.35
2016-12-29T04:47:06.583Z,4.34
2016-12-29T04:47:32.698Z,4.41
2016-12-29T04:47:58.813Z,4.35
2016-12-29T04:48:24.914Z,4.44
2016-12-29T04:48:51.014Z,4.49
2016-12-29T04:49:17.139Z,4.55
2016-12-29T04:49:43.253Z,4.52
2016-12-29T04:50:09.353Z,4.53
2016-12-29T04:50:35.472Z,4.56
2016-12-29T04:51:01.578Z,4.58
2016-12-29T04:51:27.699Z,4.6
2016-12-29T04:51:53.807Z,4.59
2016-12-29T04:52:19.911Z,4.56
2016-12-29T04:52:46.030Z,4.6
2016-12-29T04:53:12.139Z,4.56
2016-12-29T04:53:38.246Z,4.55
2016-12-29T04:54:04.367Z,4.63
2016-12-29T04:54:30.483Z,4.59
2016-12-29T04:54:56.588Z,4.58
2016-12-29T04:55:22.703Z,4.59
2016-12-29T04:55:48.819Z,4.53
2016-12-29T04:56:14.922Z,4.5
2016-12-29T04:56:41.030Z,4.49
2016-12-29T04:57:07.128Z,4.49
2016-12-29T04:57:33.253Z,4.42
2016-12-29T04:57:59.368Z,4.44
2016-12-29T04:58:25.469Z,4.49
2016-12-29T04:58:51.589Z,4.44
2016-12-29T04:59:17.704Z,4.5
2016-12-29T04:59:43.809Z,4.42
2016-12-29T05:00:09.921Z,4.49
2016-12-29T05:00:36.041Z,4.4
2016-12-29T05:01:02.194Z,4.35
2016-12-29T05:01:28.303Z,4.37
2016-12-29T05:01:54.413Z,4.41
2016-12-29T05:02:20.529Z,4.37
2016-12-29T05:02:46.654Z,4.49
2016-12-29T05:03:12.753Z,4.5
2016-12-29T05:03:38.866Z,4.5
2016-12-29T05:04:04.990Z,4.45
2016-12-29T05:04:31.089Z,4.45
2016-12-29T05:04:57.202Z,4.4
2016-12-29T05:05:23.318Z,4.35
2016-12-29T05:05:49.429Z,4.34
2016-12-29T05:06:15.528Z,4.26
2016-12-29T05:06:41.656Z,4.26
2016-12-29T05:07:07.765Z,4.28
2016-12-29T05:07:33.880Z,4.26
2016-12-29T05:07:59.982Z,4.28
2016-12-29T05:08:26.093Z,4.35
2016-12-29T05:08:52.217Z,4.3
2016-12-29T05:09:18.322Z,4.38
2016-12-29T05:09:44.425Z,4.31
2016-12-29T05:10:10.555Z,4.19
2016-12-29T05:10:36.661Z,4.34
2016-12-29T05:11:02.769Z,4.35
2016-12-29T05:11:28.886Z,4.38
2016-12-29T05:11:55.005Z,4.35
2016-12-29T05:12:21.104Z,4.3
2016-12-29T05:12:47.218Z,4.35
2016-12-29T05:13:13.318Z,4.37
2016-12-29T05:13:39.439Z,4.34
2016-12-29T05:14:05.552Z,4.41
2016-12-29T05:14:31.655Z,4.31
2016-12-29T05:14:57.774Z,4.31
2016-12-29T05:15:23.889Z,4.41
2016-12-29T05:15:49.991Z,4.41
2016-12-29T05:16:16.111Z,4.23
2016-12-29T05:16:42.224Z,4.31
2016-12-29T05:17:08.327Z,4.37
2016-12-29T05:17:34.440Z,4.37
2016-12-29T05:18:00.564Z,4.24
2016-12-29T05:18:26.670Z,4.35
2016-12-29T05:18:52.775Z,4.31
2016-12-29T05:19:18.895Z,4.35
2016-12-29T05:19:45.000Z,4.32
2016-12-29T05:20:11.108Z,4.32
2016-12-29T05:20:37.233Z,4.38
2016-12-29T05:21:03.344Z,4.28
2016-12-29T05:21:29.448Z,4.2
2016-12-29T05:21:55.567Z,4.17
2016-12-29T05:22:21.679Z,4.34
2016-12-29T05:22:47.783Z,4.35
2016-12-29T05:23:13.901Z,4.34
2016-12-29T05:23:40.026Z,4.3
2016-12-29T05:24:06.128Z,4.28
2016-12-29T05:24:32.239Z,4.28
2016-12-29T05:24:58.347Z,4.19
2016-12-29T05:25:24.467Z,4.32
2016-12-29T05:25:50.575Z,4.31
2016-12-29T05:26:16.680Z,4.28
2016-12-29T05:26:42.797Z,4.24
2016-12-29T05:27:08.911Z,4.26
2016-12-29T05:27:35.017Z,4.3
2016-12-29T05:28:01.129Z,4.28
2016-12-29T05:28:27.252Z,4.19
2016-12-29T05:28:53.351Z,4.22
2016-12-29T05:29:19.461Z,4.2
2016-12-29T05:29:45.575Z,4.17
2016-12-29T05:30:11.692Z,4.22
2016-12-29T05:30:37.807Z,4.31
2016-12-29T05:31:03.909Z,4.38
2016-12-29T05:31:30.011Z,4.32
2016-12-29T05:31:56.134Z,4.26
2016-12-29T05:32:22.240Z,4.28
2016-12-29T05:32:48.356Z,4.26
2016-12-29T05:33:14.469Z,4.28
2016-12-29T05:33:40.575Z,4.23
2016-12-29T05:34:06.678Z,4.28
2016-12-29T05:34:32.805Z,4.38
2016-12-29T05:34:58.919Z,4.31
2016-12-29T05:35:25.032Z,4.19
2016-12-29T05:35:51.132Z,4.17
2016-12-29T05:36:17.242Z,4.34
2016-12-29T05:36:43.366Z,4.3
2016-12-29T05:37:09.472Z,4.22
2016-12-29T05:37:35.572Z,4.2
2016-12-29T05:38:01.697Z,4.2
2016-12-29T05:38:27.806Z,4.2
2016-12-29T05:38:53.912Z,4.22
2016-12-29T05:39:20.032Z,4.24
2016-12-29T05:39:46.150Z,4.22
2016-12-29T05:40:12.277Z,4.24
2016-12-29T05:40:38.392Z,4.19
2016-12-29T05:41:04.500Z,4.2
2016-12-29T05:41:30.622Z,4.19
2016-12-29T05:41:56.730Z,4.19
2016-12-29T05:42:22.830Z,4.2
2016-12-29T05:42:48.954Z,4.2
2016-12-29T05:43:15.067Z,4.23
2016-12-29T05:43:41.170Z,4.19
2016-12-29T05:44:07.285Z,4.22
2016-12-29T05:44:33.405Z,4.12
2016-12-29T05:44:59.506Z,4.24
2016-12-29T05:45:25.620Z,4.19
2016-12-29T05:45:51.740Z,4.2
2016-12-29T05:46:17.841Z,4.13
2016-12-29T05:46:43.955Z,4.23
2016-12-29T05:47:10.063Z,4.2
2016-12-29T05:47:36.179Z,4.19
2016-12-29T05:48:02.300Z,4.14
2016-12-29T05:48:28.397Z,4.16
2016-12-29T05:48:54.511Z,4.16